sensor_id;sensor_type;location;lat;lon;timestamp;P1;durP1;ratioP1;P2;durP2;ratioP2
78796;SDS011;68145;52.514;13.460;2023-07-08T00:01:04;16.05;;;10.25;;
78796;SDS011;68145;52.514;13.460;2023-07-08T00:03:30;57.70;;;35.45;;
78796;SDS011;68145;52.514;13.460;2023-07-08T00:05:56;39.65;;;25.27;;
78796;SDS011;68145;52.514;13.460;2023-07-08T00:08:22;24.55;;;16.58;;
78796;SDS011;68145;52.514;13.460;2023-07-08T00:10:49;25.92;;;16.48;;
78796;SDS011;68145;52.514;13.460;2023-07-08T00:13:15;30.90;;;20.33;;
78796;SDS011;68145;52.514;13.460;2023-07-08T00:15:41;31.73;;;20.25;;
78796;SDS011;68145;52.514;13.460;2023-07-08T00:18:11;21.23;;;12.68;;
78796;SDS011;68145;52.514;13.460;2023-07-08T00:20:39;11.30;;;7.47;;
78796;SDS011;68145;52.514;13.460;2023-07-08T00:23:05;9.98;;;6.65;;
78796;SDS011;68145;52.514;13.460;2023-07-08T00:25:32;10.18;;;6.38;;
78796;SDS011;68145;52.514;13.460;2023-07-08T00:27:58;9.95;;;6.03;;
78796;SDS011;68145;52.514;13.460;2023-07-08T00:30:25;6.95;;;4.50;;
78796;SDS011;68145;52.514;13.460;2023-07-08T00:35:22;15.07;;;9.15;;
78796;SDS011;68145;52.514;13.460;2023-07-08T00:37:49;12.55;;;7.90;;
78796;SDS011;68145;52.514;13.460;2023-07-08T00:40:18;16.55;;;11.15;;
78796;SDS011;68145;52.514;13.460;2023-07-08T00:42:44;14.77;;;10.02;;
78796;SDS011;68145;52.514;13.460;2023-07-08T00:45:26;29.98;;;16.10;;
78796;SDS011;68145;52.514;13.460;2023-07-08T00:47:55;15.20;;;8.48;;
78796;SDS011;68145;52.514;13.460;2023-07-08T00:50:22;9.32;;;6.05;;
78796;SDS011;68145;52.514;13.460;2023-07-08T00:52:48;9.02;;;4.90;;
78796;SDS011;68145;52.514;13.460;2023-07-08T00:55:14;8.85;;;5.20;;
78796;SDS011;68145;52.514;13.460;2023-07-08T00:57:40;6.57;;;4.70;;
78796;SDS011;68145;52.514;13.460;2023-07-08T01:00:12;8.23;;;4.78;;
78796;SDS011;68145;52.514;13.460;2023-07-08T01:02:50;8.35;;;4.80;;
78796;SDS011;68145;52.514;13.460;2023-07-08T01:05:19;10.30;;;6.22;;
78796;SDS011;68145;52.514;13.460;2023-07-08T01:07:49;10.63;;;7.03;;
78796;SDS011;68145;52.514;13.460;2023-07-08T01:10:18;17.60;;;11.40;;
78796;SDS011;68145;52.514;13.460;2023-07-08T01:12:48;13.68;;;9.68;;
78796;SDS011;68145;52.514;13.460;2023-07-08T01:15:15;5.63;;;4.40;;
78796;SDS011;68145;52.514;13.460;2023-07-08T01:17:42;11.85;;;8.63;;
78796;SDS011;68145;52.514;13.460;2023-07-08T01:20:08;8.77;;;5.80;;
78796;SDS011;68145;52.514;13.460;2023-07-08T01:22:40;7.32;;;5.38;;
78796;SDS011;68145;52.514;13.460;2023-07-08T01:25:06;6.68;;;4.63;;
78796;SDS011;68145;52.514;13.460;2023-07-08T01:27:34;5.25;;;3.75;;
78796;SDS011;68145;52.514;13.460;2023-07-08T01:30:02;5.85;;;4.47;;
78796;SDS011;68145;52.514;13.460;2023-07-08T01:32:30;20.00;;;13.82;;
78796;SDS011;68145;52.514;13.460;2023-07-08T01:34:57;11.60;;;8.55;;
78796;SDS011;68145;52.514;13.460;2023-07-08T01:37:31;8.77;;;6.32;;
78796;SDS011;68145;52.514;13.460;2023-07-08T01:40:13;10.32;;;7.53;;
78796;SDS011;68145;52.514;13.460;2023-07-08T01:42:40;5.88;;;4.03;;
78796;SDS011;68145;52.514;13.460;2023-07-08T01:45:10;6.80;;;4.15;;
78796;SDS011;68145;52.514;13.460;2023-07-08T01:47:36;8.15;;;5.35;;
78796;SDS011;68145;52.514;13.460;2023-07-08T01:50:02;5.00;;;3.92;;
78796;SDS011;68145;52.514;13.460;2023-07-08T01:52:28;4.55;;;3.30;;
78796;SDS011;68145;52.514;13.460;2023-07-08T01:54:55;5.60;;;3.42;;
78796;SDS011;68145;52.514;13.460;2023-07-08T01:57:21;6.72;;;3.65;;
78796;SDS011;68145;52.514;13.460;2023-07-08T01:59:47;6.10;;;3.50;;
78796;SDS011;68145;52.514;13.460;2023-07-08T02:02:13;6.00;;;4.35;;
78796;SDS011;68145;52.514;13.460;2023-07-08T02:04:39;4.97;;;3.80;;
78796;SDS011;68145;52.514;13.460;2023-07-08T02:07:05;5.72;;;3.90;;
78796;SDS011;68145;52.514;13.460;2023-07-08T02:09:31;5.10;;;3.75;;
78796;SDS011;68145;52.514;13.460;2023-07-08T02:11:57;5.60;;;3.70;;
78796;SDS011;68145;52.514;13.460;2023-07-08T02:14:23;6.53;;;3.60;;
78796;SDS011;68145;52.514;13.460;2023-07-08T02:16:49;5.18;;;3.50;;
78796;SDS011;68145;52.514;13.460;2023-07-08T02:19:15;5.88;;;3.63;;
78796;SDS011;68145;52.514;13.460;2023-07-08T02:21:42;5.60;;;3.72;;
78796;SDS011;68145;52.514;13.460;2023-07-08T02:26:34;10.35;;;5.30;;
78796;SDS011;68145;52.514;13.460;2023-07-08T02:29:01;4.78;;;3.70;;
78796;SDS011;68145;52.514;13.460;2023-07-08T02:31:27;5.38;;;4.10;;
78796;SDS011;68145;52.514;13.460;2023-07-08T02:33:53;7.28;;;4.13;;
78796;SDS011;68145;52.514;13.460;2023-07-08T02:36:21;6.40;;;4.05;;
78796;SDS011;68145;52.514;13.460;2023-07-08T02:38:47;4.60;;;3.55;;
78796;SDS011;68145;52.514;13.460;2023-07-08T02:41:13;5.00;;;3.30;;
78796;SDS011;68145;52.514;13.460;2023-07-08T02:43:39;5.57;;;4.10;;
78796;SDS011;68145;52.514;13.460;2023-07-08T02:46:05;5.75;;;4.05;;
78796;SDS011;68145;52.514;13.460;2023-07-08T02:48:31;4.95;;;3.30;;
78796;SDS011;68145;52.514;13.460;2023-07-08T02:50:58;6.03;;;3.53;;
78796;SDS011;68145;52.514;13.460;2023-07-08T02:53:24;5.88;;;3.53;;
78796;SDS011;68145;52.514;13.460;2023-07-08T02:55:50;6.05;;;4.00;;
78796;SDS011;68145;52.514;13.460;2023-07-08T02:58:16;5.70;;;3.40;;
78796;SDS011;68145;52.514;13.460;2023-07-08T03:00:42;5.88;;;3.17;;
78796;SDS011;68145;52.514;13.460;2023-07-08T03:03:08;8.02;;;4.10;;
78796;SDS011;68145;52.514;13.460;2023-07-08T03:05:34;5.68;;;4.18;;
78796;SDS011;68145;52.514;13.460;2023-07-08T03:08:01;7.35;;;4.57;;
78796;SDS011;68145;52.514;13.460;2023-07-08T03:10:27;6.07;;;4.35;;
78796;SDS011;68145;52.514;13.460;2023-07-08T03:12:53;8.52;;;3.85;;
78796;SDS011;68145;52.514;13.460;2023-07-08T03:15:19;4.90;;;3.50;;
78796;SDS011;68145;52.514;13.460;2023-07-08T03:17:45;6.10;;;3.97;;
78796;SDS011;68145;52.514;13.460;2023-07-08T03:20:11;5.82;;;3.80;;
78796;SDS011;68145;52.514;13.460;2023-07-08T03:22:37;6.20;;;3.38;;
78796;SDS011;68145;52.514;13.460;2023-07-08T03:25:03;5.68;;;3.53;;
78796;SDS011;68145;52.514;13.460;2023-07-08T03:27:29;5.72;;;3.20;;
78796;SDS011;68145;52.514;13.460;2023-07-08T03:29:55;5.82;;;3.20;;
78796;SDS011;68145;52.514;13.460;2023-07-08T03:32:23;4.55;;;3.33;;
78796;SDS011;68145;52.514;13.460;2023-07-08T03:37:16;5.85;;;3.53;;
78796;SDS011;68145;52.514;13.460;2023-07-08T03:39:42;4.57;;;3.45;;
78796;SDS011;68145;52.514;13.460;2023-07-08T03:42:09;4.32;;;3.17;;
78796;SDS011;68145;52.514;13.460;2023-07-08T03:44:35;4.53;;;3.00;;
78796;SDS011;68145;52.514;13.460;2023-07-08T03:47:01;5.47;;;3.10;;
78796;SDS011;68145;52.514;13.460;2023-07-08T03:49:27;7.00;;;3.00;;
78796;SDS011;68145;52.514;13.460;2023-07-08T03:51:53;6.57;;;3.67;;
78796;SDS011;68145;52.514;13.460;2023-07-08T03:54:20;5.28;;;3.42;;
78796;SDS011;68145;52.514;13.460;2023-07-08T03:56:47;5.18;;;3.67;;
78796;SDS011;68145;52.514;13.460;2023-07-08T03:59:13;4.57;;;3.50;;
78796;SDS011;68145;52.514;13.460;2023-07-08T04:01:39;4.68;;;3.00;;
78796;SDS011;68145;52.514;13.460;2023-07-08T04:04:06;5.15;;;3.13;;
78796;SDS011;68145;52.514;13.460;2023-07-08T04:06:32;5.15;;;3.42;;
78796;SDS011;68145;52.514;13.460;2023-07-08T04:08:59;5.45;;;3.55;;
78796;SDS011;68145;52.514;13.460;2023-07-08T04:11:25;5.88;;;3.58;;
78796;SDS011;68145;52.514;13.460;2023-07-08T04:13:51;5.68;;;3.78;;
78796;SDS011;68145;52.514;13.460;2023-07-08T04:16:42;5.75;;;3.60;;
78796;SDS011;68145;52.514;13.460;2023-07-08T04:19:10;4.97;;;3.25;;
78796;SDS011;68145;52.514;13.460;2023-07-08T04:21:39;5.65;;;3.58;;
78796;SDS011;68145;52.514;13.460;2023-07-08T04:24:06;7.53;;;3.80;;
78796;SDS011;68145;52.514;13.460;2023-07-08T04:26:34;5.70;;;3.90;;
78796;SDS011;68145;52.514;13.460;2023-07-08T04:29:00;4.68;;;3.70;;
78796;SDS011;68145;52.514;13.460;2023-07-08T04:31:27;5.47;;;3.50;;
78796;SDS011;68145;52.514;13.460;2023-07-08T04:33:53;4.75;;;3.25;;
78796;SDS011;68145;52.514;13.460;2023-07-08T04:36:19;9.73;;;4.05;;
78796;SDS011;68145;52.514;13.460;2023-07-08T04:38:46;6.22;;;4.18;;
78796;SDS011;68145;52.514;13.460;2023-07-08T04:41:13;6.07;;;4.25;;
78796;SDS011;68145;52.514;13.460;2023-07-08T04:43:39;5.60;;;3.80;;
78796;SDS011;68145;52.514;13.460;2023-07-08T04:46:09;4.80;;;3.63;;
78796;SDS011;68145;52.514;13.460;2023-07-08T04:48:41;5.35;;;3.42;;
78796;SDS011;68145;52.514;13.460;2023-07-08T04:51:07;5.18;;;3.90;;
78796;SDS011;68145;52.514;13.460;2023-07-08T04:53:34;7.93;;;4.75;;
78796;SDS011;68145;52.514;13.460;2023-07-08T04:56:00;5.30;;;3.88;;
78796;SDS011;68145;52.514;13.460;2023-07-08T04:58:26;5.07;;;3.50;;
78796;SDS011;68145;52.514;13.460;2023-07-08T05:00:52;5.97;;;4.15;;
78796;SDS011;68145;52.514;13.460;2023-07-08T05:03:18;5.20;;;3.80;;
78796;SDS011;68145;52.514;13.460;2023-07-08T05:05:44;6.50;;;4.30;;
78796;SDS011;68145;52.514;13.460;2023-07-08T05:08:11;5.45;;;4.30;;
78796;SDS011;68145;52.514;13.460;2023-07-08T05:10:38;5.57;;;4.10;;
78796;SDS011;68145;52.514;13.460;2023-07-08T05:13:04;4.82;;;3.70;;
78796;SDS011;68145;52.514;13.460;2023-07-08T05:15:30;5.57;;;4.05;;
78796;SDS011;68145;52.514;13.460;2023-07-08T05:17:56;6.18;;;3.38;;
78796;SDS011;68145;52.514;13.460;2023-07-08T05:20:22;5.72;;;3.55;;
78796;SDS011;68145;52.514;13.460;2023-07-08T05:22:48;4.90;;;3.53;;
78796;SDS011;68145;52.514;13.460;2023-07-08T05:25:15;6.88;;;4.25;;
78796;SDS011;68145;52.514;13.460;2023-07-08T05:27:41;6.93;;;3.83;;
78796;SDS011;68145;52.514;13.460;2023-07-08T05:30:08;6.88;;;4.13;;
78796;SDS011;68145;52.514;13.460;2023-07-08T05:32:37;5.93;;;3.70;;
78796;SDS011;68145;52.514;13.460;2023-07-08T05:35:03;6.15;;;3.70;;
78796;SDS011;68145;52.514;13.460;2023-07-08T05:37:30;5.30;;;3.42;;
78796;SDS011;68145;52.514;13.460;2023-07-08T05:39:56;6.45;;;4.18;;
78796;SDS011;68145;52.514;13.460;2023-07-08T05:42:25;7.05;;;3.92;;
78796;SDS011;68145;52.514;13.460;2023-07-08T05:44:52;6.85;;;4.40;;
78796;SDS011;68145;52.514;13.460;2023-07-08T05:47:19;6.15;;;3.85;;
78796;SDS011;68145;52.514;13.460;2023-07-08T05:49:46;6.28;;;4.03;;
78796;SDS011;68145;52.514;13.460;2023-07-08T05:52:12;6.00;;;3.85;;
78796;SDS011;68145;52.514;13.460;2023-07-08T05:54:39;7.25;;;4.18;;
78796;SDS011;68145;52.514;13.460;2023-07-08T05:57:09;4.43;;;3.75;;
78796;SDS011;68145;52.514;13.460;2023-07-08T05:59:35;8.07;;;4.85;;
78796;SDS011;68145;52.514;13.460;2023-07-08T06:02:04;6.78;;;5.22;;
78796;SDS011;68145;52.514;13.460;2023-07-08T06:04:30;8.85;;;5.90;;
78796;SDS011;68145;52.514;13.460;2023-07-08T06:06:56;6.10;;;3.97;;
78796;SDS011;68145;52.514;13.460;2023-07-08T06:09:22;6.00;;;4.22;;
78796;SDS011;68145;52.514;13.460;2023-07-08T06:11:49;7.03;;;3.92;;
78796;SDS011;68145;52.514;13.460;2023-07-08T06:14:15;6.50;;;4.18;;
78796;SDS011;68145;52.514;13.460;2023-07-08T06:16:41;4.75;;;3.45;;
78796;SDS011;68145;52.514;13.460;2023-07-08T06:19:07;4.53;;;3.47;;
78796;SDS011;68145;52.514;13.460;2023-07-08T06:21:33;6.10;;;4.20;;
78796;SDS011;68145;52.514;13.460;2023-07-08T06:23:59;7.57;;;4.55;;
78796;SDS011;68145;52.514;13.460;2023-07-08T06:26:25;5.82;;;3.50;;
78796;SDS011;68145;52.514;13.460;2023-07-08T06:28:51;4.55;;;3.47;;
78796;SDS011;68145;52.514;13.460;2023-07-08T06:31:17;4.15;;;3.55;;
78796;SDS011;68145;52.514;13.460;2023-07-08T06:33:44;6.88;;;3.55;;
78796;SDS011;68145;52.514;13.460;2023-07-08T06:36:10;5.47;;;3.25;;
78796;SDS011;68145;52.514;13.460;2023-07-08T06:38:36;5.30;;;3.28;;
78796;SDS011;68145;52.514;13.460;2023-07-08T06:41:02;4.68;;;3.55;;
78796;SDS011;68145;52.514;13.460;2023-07-08T06:43:28;3.83;;;3.22;;
78796;SDS011;68145;52.514;13.460;2023-07-08T06:45:54;4.00;;;3.03;;
78796;SDS011;68145;52.514;13.460;2023-07-08T06:48:20;7.40;;;4.75;;
78796;SDS011;68145;52.514;13.460;2023-07-08T06:50:47;5.95;;;3.60;;
78796;SDS011;68145;52.514;13.460;2023-07-08T06:53:13;8.77;;;3.30;;
78796;SDS011;68145;52.514;13.460;2023-07-08T06:55:40;11.77;;;7.70;;
78796;SDS011;68145;52.514;13.460;2023-07-08T06:58:06;4.60;;;3.30;;
78796;SDS011;68145;52.514;13.460;2023-07-08T07:00:32;5.03;;;3.38;;
78796;SDS011;68145;52.514;13.460;2023-07-08T07:02:58;7.57;;;4.32;;
78796;SDS011;68145;52.514;13.460;2023-07-08T07:05:24;5.65;;;4.22;;
78796;SDS011;68145;52.514;13.460;2023-07-08T07:07:50;7.47;;;4.32;;
78796;SDS011;68145;52.514;13.460;2023-07-08T07:10:18;6.80;;;5.55;;
78796;SDS011;68145;52.514;13.460;2023-07-08T07:12:44;8.43;;;4.07;;
78796;SDS011;68145;52.514;13.460;2023-07-08T07:15:10;5.75;;;4.22;;
78796;SDS011;68145;52.514;13.460;2023-07-08T07:17:36;4.88;;;3.42;;
78796;SDS011;68145;52.514;13.460;2023-07-08T07:20:02;6.03;;;3.72;;
78796;SDS011;68145;52.514;13.460;2023-07-08T07:22:28;11.38;;;6.10;;
78796;SDS011;68145;52.514;13.460;2023-07-08T07:24:55;7.85;;;6.03;;
78796;SDS011;68145;52.514;13.460;2023-07-08T07:27:21;5.90;;;3.97;;
78796;SDS011;68145;52.514;13.460;2023-07-08T07:29:48;4.35;;;3.50;;
78796;SDS011;68145;52.514;13.460;2023-07-08T07:34:40;10.30;;;6.65;;
78796;SDS011;68145;52.514;13.460;2023-07-08T07:37:16;6.63;;;4.35;;
78796;SDS011;68145;52.514;13.460;2023-07-08T07:39:43;6.43;;;3.63;;
78796;SDS011;68145;52.514;13.460;2023-07-08T07:42:09;6.45;;;3.95;;
78796;SDS011;68145;52.514;13.460;2023-07-08T07:44:35;5.75;;;3.75;;
78796;SDS011;68145;52.514;13.460;2023-07-08T07:47:04;13.00;;;6.60;;
78796;SDS011;68145;52.514;13.460;2023-07-08T07:49:30;10.55;;;6.78;;
78796;SDS011;68145;52.514;13.460;2023-07-08T07:51:57;4.47;;;3.85;;
78796;SDS011;68145;52.514;13.460;2023-07-08T07:54:23;4.88;;;3.50;;
78796;SDS011;68145;52.514;13.460;2023-07-08T07:56:49;5.65;;;3.78;;
78796;SDS011;68145;52.514;13.460;2023-07-08T07:59:15;4.85;;;3.40;;
78796;SDS011;68145;52.514;13.460;2023-07-08T08:01:41;4.20;;;3.00;;
78796;SDS011;68145;52.514;13.460;2023-07-08T08:04:07;5.15;;;3.47;;
78796;SDS011;68145;52.514;13.460;2023-07-08T08:06:34;10.63;;;6.38;;
78796;SDS011;68145;52.514;13.460;2023-07-08T08:09:00;5.53;;;3.25;;
78796;SDS011;68145;52.514;13.460;2023-07-08T08:11:26;5.25;;;4.13;;
78796;SDS011;68145;52.514;13.460;2023-07-08T08:13:52;5.30;;;4.47;;
78796;SDS011;68145;52.514;13.460;2023-07-08T08:16:19;7.85;;;5.15;;
78796;SDS011;68145;52.514;13.460;2023-07-08T08:18:45;6.43;;;4.10;;
78796;SDS011;68145;52.514;13.460;2023-07-08T08:21:11;11.00;;;6.65;;
78796;SDS011;68145;52.514;13.460;2023-07-08T08:23:38;8.20;;;3.60;;
78796;SDS011;68145;52.514;13.460;2023-07-08T08:26:04;5.95;;;3.58;;
78796;SDS011;68145;52.514;13.460;2023-07-08T08:28:31;9.35;;;5.43;;
78796;SDS011;68145;52.514;13.460;2023-07-08T08:30:57;4.53;;;3.00;;
78796;SDS011;68145;52.514;13.460;2023-07-08T08:33:23;4.07;;;3.10;;
78796;SDS011;68145;52.514;13.460;2023-07-08T08:35:49;6.00;;;3.20;;
78796;SDS011;68145;52.514;13.460;2023-07-08T08:38:15;4.03;;;3.13;;
78796;SDS011;68145;52.514;13.460;2023-07-08T08:45:44;4.90;;;3.33;;
78796;SDS011;68145;52.514;13.460;2023-07-08T08:48:13;4.03;;;3.25;;
78796;SDS011;68145;52.514;13.460;2023-07-08T08:50:58;4.72;;;3.22;;
78796;SDS011;68145;52.514;13.460;2023-07-08T08:53:25;5.03;;;3.15;;
78796;SDS011;68145;52.514;13.460;2023-07-08T08:55:56;8.05;;;5.25;;
78796;SDS011;68145;52.514;13.460;2023-07-08T09:00:54;5.50;;;3.30;;
78796;SDS011;68145;52.514;13.460;2023-07-08T09:03:26;4.35;;;3.47;;
78796;SDS011;68145;52.514;13.460;2023-07-08T09:05:56;4.35;;;2.95;;
78796;SDS011;68145;52.514;13.460;2023-07-08T09:08:27;6.47;;;4.68;;
78796;SDS011;68145;52.514;13.460;2023-07-08T09:11:10;4.43;;;3.15;;
78796;SDS011;68145;52.514;13.460;2023-07-08T09:13:39;5.05;;;3.30;;
78796;SDS011;68145;52.514;13.460;2023-07-08T09:16:12;4.53;;;3.10;;
78796;SDS011;68145;52.514;13.460;2023-07-08T09:18:58;3.35;;;2.70;;
78796;SDS011;68145;52.514;13.460;2023-07-08T09:21:30;5.35;;;3.40;;
78796;SDS011;68145;52.514;13.460;2023-07-08T09:23:59;4.75;;;3.00;;
78796;SDS011;68145;52.514;13.460;2023-07-08T09:26:28;3.45;;;2.33;;
78796;SDS011;68145;52.514;13.460;2023-07-08T09:28:55;6.88;;;2.80;;
78796;SDS011;68145;52.514;13.460;2023-07-08T09:31:23;4.80;;;3.13;;
78796;SDS011;68145;52.514;13.460;2023-07-08T09:33:50;6.22;;;3.88;;
78796;SDS011;68145;52.514;13.460;2023-07-08T09:36:18;5.93;;;3.20;;
78796;SDS011;68145;52.514;13.460;2023-07-08T09:38:46;4.22;;;2.92;;
78796;SDS011;68145;52.514;13.460;2023-07-08T09:41:13;3.80;;;2.92;;
78796;SDS011;68145;52.514;13.460;2023-07-08T09:43:39;10.15;;;7.47;;
78796;SDS011;68145;52.514;13.460;2023-07-08T09:46:08;4.22;;;3.17;;
78796;SDS011;68145;52.514;13.460;2023-07-08T09:48:36;4.35;;;2.88;;
78796;SDS011;68145;52.514;13.460;2023-07-08T09:51:03;4.25;;;2.30;;
78796;SDS011;68145;52.514;13.460;2023-07-08T09:53:29;4.00;;;2.75;;
78796;SDS011;68145;52.514;13.460;2023-07-08T09:55:58;3.22;;;2.65;;
78796;SDS011;68145;52.514;13.460;2023-07-08T09:58:35;4.55;;;2.30;;
78796;SDS011;68145;52.514;13.460;2023-07-08T10:01:09;6.65;;;3.70;;
78796;SDS011;68145;52.514;13.460;2023-07-08T10:03:35;4.82;;;3.40;;
78796;SDS011;68145;52.514;13.460;2023-07-08T10:06:03;5.70;;;2.90;;
78796;SDS011;68145;52.514;13.460;2023-07-08T10:08:40;5.20;;;2.67;;
78796;SDS011;68145;52.514;13.460;2023-07-08T10:13:48;5.63;;;2.60;;
78796;SDS011;68145;52.514;13.460;2023-07-08T10:16:21;5.78;;;3.90;;
78796;SDS011;68145;52.514;13.460;2023-07-08T10:18:48;5.13;;;2.53;;
78796;SDS011;68145;52.514;13.460;2023-07-08T10:26:29;6.90;;;3.78;;
78796;SDS011;68145;52.514;13.460;2023-07-08T10:31:33;4.63;;;2.65;;
78796;SDS011;68145;52.514;13.460;2023-07-08T10:38:59;5.28;;;3.33;;
78796;SDS011;68145;52.514;13.460;2023-07-08T10:44:09;4.50;;;3.10;;
78796;SDS011;68145;52.514;13.460;2023-07-08T10:51:50;3.25;;;2.35;;
78796;SDS011;68145;52.514;13.460;2023-07-08T10:56:54;4.75;;;3.00;;
78796;SDS011;68145;52.514;13.460;2023-07-08T11:04:46;4.32;;;3.10;;
78796;SDS011;68145;52.514;13.460;2023-07-08T11:07:22;3.55;;;2.60;;
78796;SDS011;68145;52.514;13.460;2023-07-08T11:09:53;3.90;;;2.92;;
78796;SDS011;68145;52.514;13.460;2023-07-08T11:14:49;3.53;;;2.45;;
78796;SDS011;68145;52.514;13.460;2023-07-08T11:19:55;3.65;;;2.70;;
78796;SDS011;68145;52.514;13.460;2023-07-08T11:22:23;3.75;;;2.60;;
78796;SDS011;68145;52.514;13.460;2023-07-08T11:24:52;3.85;;;2.92;;
78796;SDS011;68145;52.514;13.460;2023-07-08T11:27:23;4.13;;;3.28;;
78796;SDS011;68145;52.514;13.460;2023-07-08T11:29:56;3.60;;;2.80;;
78796;SDS011;68145;52.514;13.460;2023-07-08T11:32:26;4.45;;;2.97;;
78796;SDS011;68145;52.514;13.460;2023-07-08T11:34:53;4.80;;;2.55;;
78796;SDS011;68145;52.514;13.460;2023-07-08T11:37:20;3.55;;;2.70;;
78796;SDS011;68145;52.514;13.460;2023-07-08T11:40:21;5.00;;;2.60;;
78796;SDS011;68145;52.514;13.460;2023-07-08T11:45:15;5.82;;;2.95;;
78796;SDS011;68145;52.514;13.460;2023-07-08T11:47:45;4.80;;;2.92;;
78796;SDS011;68145;52.514;13.460;2023-07-08T11:50:24;3.08;;;2.70;;
78796;SDS011;68145;52.514;13.460;2023-07-08T11:52:58;5.43;;;2.67;;
78796;SDS011;68145;52.514;13.460;2023-07-08T11:55:27;3.97;;;2.60;;
78796;SDS011;68145;52.514;13.460;2023-07-08T11:58:00;4.95;;;3.20;;
78796;SDS011;68145;52.514;13.460;2023-07-08T12:00:29;3.47;;;2.53;;
78796;SDS011;68145;52.514;13.460;2023-07-08T12:03:12;3.90;;;2.88;;
78796;SDS011;68145;52.514;13.460;2023-07-08T12:05:43;4.63;;;2.78;;
78796;SDS011;68145;52.514;13.460;2023-07-08T12:08:13;8.60;;;3.58;;
78796;SDS011;68145;52.514;13.460;2023-07-08T12:10:41;4.65;;;3.30;;
78796;SDS011;68145;52.514;13.460;2023-07-08T12:13:13;5.38;;;3.22;;
78796;SDS011;68145;52.514;13.460;2023-07-08T12:15:39;6.55;;;3.05;;
78796;SDS011;68145;52.514;13.460;2023-07-08T12:20:37;4.80;;;2.90;;
78796;SDS011;68145;52.514;13.460;2023-07-08T12:25:59;4.47;;;2.80;;
78796;SDS011;68145;52.514;13.460;2023-07-08T12:28:25;4.07;;;2.78;;
78796;SDS011;68145;52.514;13.460;2023-07-08T12:30:52;3.50;;;2.65;;
78796;SDS011;68145;52.514;13.460;2023-07-08T12:33:30;4.75;;;3.05;;
78796;SDS011;68145;52.514;13.460;2023-07-08T12:35:59;6.43;;;3.90;;
78796;SDS011;68145;52.514;13.460;2023-07-08T12:38:29;5.28;;;3.13;;
78796;SDS011;68145;52.514;13.460;2023-07-08T12:40:57;5.05;;;2.80;;
78796;SDS011;68145;52.514;13.460;2023-07-08T12:43:24;7.10;;;3.58;;
78796;SDS011;68145;52.514;13.460;2023-07-08T12:45:50;6.05;;;3.97;;
78796;SDS011;68145;52.514;13.460;2023-07-08T12:48:16;3.83;;;2.83;;
78796;SDS011;68145;52.514;13.460;2023-07-08T12:50:42;3.42;;;2.58;;
78796;SDS011;68145;52.514;13.460;2023-07-08T12:53:10;3.50;;;2.88;;
78796;SDS011;68145;52.514;13.460;2023-07-08T12:55:41;3.72;;;3.03;;
78796;SDS011;68145;52.514;13.460;2023-07-08T12:58:14;6.10;;;2.88;;
78796;SDS011;68145;52.514;13.460;2023-07-08T13:00:44;3.97;;;2.95;;
78796;SDS011;68145;52.514;13.460;2023-07-08T13:03:18;5.05;;;3.50;;
78796;SDS011;68145;52.514;13.460;2023-07-08T13:05:47;4.50;;;2.95;;
78796;SDS011;68145;52.514;13.460;2023-07-08T13:08:14;4.97;;;3.47;;
78796;SDS011;68145;52.514;13.460;2023-07-08T13:10:41;6.43;;;3.47;;
78796;SDS011;68145;52.514;13.460;2023-07-08T13:13:10;5.13;;;3.85;;
78796;SDS011;68145;52.514;13.460;2023-07-08T13:15:38;4.05;;;2.78;;
78796;SDS011;68145;52.514;13.460;2023-07-08T13:18:05;5.18;;;3.72;;
78796;SDS011;68145;52.514;13.460;2023-07-08T13:20:32;5.68;;;4.50;;
78796;SDS011;68145;52.514;13.460;2023-07-08T13:22:59;5.00;;;3.10;;
78796;SDS011;68145;52.514;13.460;2023-07-08T13:25:30;5.78;;;4.47;;
78796;SDS011;68145;52.514;13.460;2023-07-08T13:28:00;7.25;;;4.75;;
78796;SDS011;68145;52.514;13.460;2023-07-08T13:30:28;3.53;;;3.00;;
78796;SDS011;68145;52.514;13.460;2023-07-08T13:32:55;5.25;;;2.80;;
78796;SDS011;68145;52.514;13.460;2023-07-08T13:35:23;3.75;;;2.60;;
78796;SDS011;68145;52.514;13.460;2023-07-08T13:37:49;5.93;;;3.40;;
78796;SDS011;68145;52.514;13.460;2023-07-08T13:40:16;3.63;;;3.10;;
78796;SDS011;68145;52.514;13.460;2023-07-08T13:42:51;15.95;;;11.63;;
78796;SDS011;68145;52.514;13.460;2023-07-08T13:50:45;4.90;;;3.20;;
78796;SDS011;68145;52.514;13.460;2023-07-08T13:53:19;4.97;;;3.42;;
78796;SDS011;68145;52.514;13.460;2023-07-08T13:55:45;4.82;;;4.05;;
78796;SDS011;68145;52.514;13.460;2023-07-08T13:58:14;5.80;;;4.47;;
78796;SDS011;68145;52.514;13.460;2023-07-08T14:00:41;5.30;;;4.18;;
78796;SDS011;68145;52.514;13.460;2023-07-08T14:03:09;6.68;;;3.70;;
78796;SDS011;68145;52.514;13.460;2023-07-08T14:05:37;3.72;;;3.10;;
78796;SDS011;68145;52.514;13.460;2023-07-08T14:08:09;4.47;;;3.47;;
78796;SDS011;68145;52.514;13.460;2023-07-08T14:10:36;4.15;;;2.60;;
78796;SDS011;68145;52.514;13.460;2023-07-08T14:13:02;3.90;;;3.00;;
78796;SDS011;68145;52.514;13.460;2023-07-08T14:15:28;3.97;;;2.85;;
78796;SDS011;68145;52.514;13.460;2023-07-08T14:17:54;6.50;;;3.92;;
78796;SDS011;68145;52.514;13.460;2023-07-08T14:20:20;3.80;;;2.70;;
78796;SDS011;68145;52.514;13.460;2023-07-08T14:22:48;4.25;;;3.05;;
78796;SDS011;68145;52.514;13.460;2023-07-08T14:25:16;5.07;;;3.15;;
78796;SDS011;68145;52.514;13.460;2023-07-08T14:27:45;5.93;;;3.10;;
78796;SDS011;68145;52.514;13.460;2023-07-08T14:30:12;4.30;;;2.97;;
78796;SDS011;68145;52.514;13.460;2023-07-08T14:32:38;5.35;;;3.38;;
78796;SDS011;68145;52.514;13.460;2023-07-08T14:35:17;4.75;;;3.28;;
78796;SDS011;68145;52.514;13.460;2023-07-08T14:37:44;4.78;;;3.45;;
78796;SDS011;68145;52.514;13.460;2023-07-08T14:42:46;6.00;;;4.30;;
78796;SDS011;68145;52.514;13.460;2023-07-08T14:45:12;4.40;;;3.33;;
78796;SDS011;68145;52.514;13.460;2023-07-08T14:47:38;19.13;;;12.73;;
78796;SDS011;68145;52.514;13.460;2023-07-08T14:50:11;5.93;;;4.20;;
78796;SDS011;68145;52.514;13.460;2023-07-08T14:52:37;10.00;;;7.50;;
78796;SDS011;68145;52.514;13.460;2023-07-08T14:55:04;8.20;;;6.30;;
78796;SDS011;68145;52.514;13.460;2023-07-08T14:57:31;6.43;;;5.00;;
78796;SDS011;68145;52.514;13.460;2023-07-08T14:59:59;5.72;;;4.40;;
78796;SDS011;68145;52.514;13.460;2023-07-08T15:02:26;6.60;;;4.28;;
78796;SDS011;68145;52.514;13.460;2023-07-08T15:04:52;8.60;;;5.20;;
78796;SDS011;68145;52.514;13.460;2023-07-08T15:07:18;4.57;;;3.42;;
78796;SDS011;68145;52.514;13.460;2023-07-08T15:09:44;5.80;;;4.28;;
78796;SDS011;68145;52.514;13.460;2023-07-08T15:12:11;3.88;;;3.08;;
78796;SDS011;68145;52.514;13.460;2023-07-08T15:14:37;5.53;;;4.47;;
78796;SDS011;68145;52.514;13.460;2023-07-08T15:17:08;6.88;;;4.57;;
78796;SDS011;68145;52.514;13.460;2023-07-08T15:19:35;6.30;;;4.82;;
78796;SDS011;68145;52.514;13.460;2023-07-08T15:22:02;8.75;;;6.63;;
78796;SDS011;68145;52.514;13.460;2023-07-08T15:24:28;3.95;;;3.20;;
78796;SDS011;68145;52.514;13.460;2023-07-08T15:26:54;12.50;;;7.88;;
78796;SDS011;68145;52.514;13.460;2023-07-08T15:29:22;6.95;;;4.22;;
78796;SDS011;68145;52.514;13.460;2023-07-08T15:31:49;4.30;;;3.25;;
78796;SDS011;68145;52.514;13.460;2023-07-08T15:34:16;5.82;;;3.88;;
78796;SDS011;68145;52.514;13.460;2023-07-08T15:36:42;5.97;;;4.05;;
78796;SDS011;68145;52.514;13.460;2023-07-08T15:39:08;4.40;;;3.50;;
78796;SDS011;68145;52.514;13.460;2023-07-08T15:41:34;4.43;;;3.60;;
78796;SDS011;68145;52.514;13.460;2023-07-08T15:44:01;5.10;;;3.90;;
78796;SDS011;68145;52.514;13.460;2023-07-08T15:46:31;6.25;;;3.90;;